Tybee Island, GA (31328)

1:13 PM EST on January 18, 2017 (GMT -0500)
Tid-Bit | | Change Station
Active Advisory: Flood Warning

Elev 10 ft 32.01 °N, 80.85 °W | Updated 11 minutes ago

Partly Cloudy
Partly Cloudy
72.9 °F
Feels Like 74 °F
N
1.0
Wind Variable Wind from West
Gusts 11.0 mph

Today
High -- | Low -- °F
--% Chance of Precip.
Yesterday
High -- | Low -- °F
Precip. -- in
Pressure 30.08 in
Visibility 10.0 miles
Clouds Few 1300 ft
Heat Index 74 °F
Dew Point 65 °F
Humidity 76%
Rainfall 0.00 in
Snow Depth Not available.
7:23 AM 5:44 PM
Waning Gibbous, 61% visible
METAR KHXD 181750Z 22009KT 10SM FEW013 23/17 A3008
Pressure 30.08 in
Visibility 10.0 miles
Clouds Few 1300 ft
Heat Index 74 °F
Dew Point 65 °F
Humidity 76%
Rainfall 0.00 in
Snow Depth Not available.
7:23 AM 5:44 PM
Waning Gibbous, 61% visible
METAR KHXD 181750Z 22009KT 10SM FEW013 23/17 A3008

Get Your Daily Forecast Email!

Thanks for signing up!

Be on the lookout for a verification email in your inbox.

You'll start receiving the daily forecast at 8 AM.

×

10-Day Weather Forecast

Almanac

Astronomy

Jan. 18, 2017 Rise Set
Actual Time
Civil Twilight
Nautical Twilight
Astronomical Twilight
Moon
Length of Visible Light
Length of Day
Tomorrow will be .
, % of the Moon is Illuminated

Today's Extremes

State Highs State Lows

Community

WunderPhotos

Upload Photos

1,962,540 photos uploaded!

WunderBlog® & News

Nearby

Air Quality

  Air Quality AQ Index Pollutant
Not available.

Snow Depth

Station Depth Elevation

Earthquake Activity

City Distance Mag. Time & Date
Minimum magnitude displayed is 2.5.

Coastal Water Temperatures

Place Temperature

Stations

Nearby Weather Stations

Station Location Temp. Windchill Dew Point Humidity Wind Precip. Elev Updated Type
                   

Watches & Warnings

Flood Warning
Issued: 10:12 AM EST Jan. 18, 2017 – National Weather Service

The Flood Warning continues for
the Ogeechee river near Eden.
* At 9 am Wednesday the stage was 11.4 feet.
* Flood stage is 11.0 feet.
* Minor flooding is occurring.
* Forecast, the river is expected to drop below flood stage early
Thursday afternoon.
* At 11.5 feet, the Morgans bridge boat ramp is inaccessible.


Lat... Lon 3246 8160 3252 8152 3227 8140 3208 8133
          3206 8143 3223 8150